Time;durP1;ratioP1;P1;durP2;ratioP2;P2;SDS_P1;SDS_P2;PMS_P1;PMS_P2;Temp;Humidity;BMP_temperature;BMP_pressure;BME280_temperature;BME280_humidity;BME280_pressure;Samples;Min_cycle;Max_cycle;Signal;HPM_P1;HPM_P2
2023/01/05 00:02:16;;;;;;;0.60;0.40;;;10.90;99.90;;;;;;5093299;28;20938;-74
2023/01/05 00:04:42;;;;;;;0.70;0.40;;;10.80;99.90;;;;;;5094010;28;20456;-75
2023/01/05 00:07:09;;;;;;;0.80;0.50;;;10.90;1.00;;;;;;5092833;28;20449;-74
2023/01/05 00:09:37;;;;;;;0.80;0.40;;;10.80;1.00;;;;;;5093960;28;20466;-74
2023/01/05 00:23:14;;;;;;;1.43;0.50;;;10.90;1.00;;;;;;5092968;28;20489;-74
2023/01/05 00:25:41;;;;;;;0.70;0.50;;;11.00;99.90;;;;;;5093726;28;20448;-75
2023/01/05 00:28:08;;;;;;;0.60;0.40;;;11.00;99.90;;;;;;5088127;28;20532;-75
2023/01/05 00:30:40;;;;;;;0.70;0.50;;;11.10;99.90;;;;;;5084509;28;20457;-75
2023/01/05 00:33:08;;;;;;;0.80;0.50;;;11.10;99.90;;;;;;5093160;28;20446;-75
2023/01/05 00:35:35;;;;;;;1.10;0.63;;;11.10;99.90;;;;;;5093447;28;20963;-75
2023/01/05 00:38:02;;;;;;;1.13;0.67;;;11.10;99.90;;;;;;5092892;28;20474;-75
2023/01/05 00:40:29;;;;;;;0.90;0.57;;;11.20;99.90;;;;;;5093474;28;20484;-75
2023/01/05 00:42:56;;;;;;;0.70;0.40;;;11.20;99.90;;;;;;5092894;28;20566;-74
2023/01/05 00:45:23;;;;;;;0.90;0.50;;;11.20;99.90;;;;;;5092631;28;20453;-75
2023/01/05 00:47:52;;;;;;;0.60;0.40;;;11.20;99.90;;;;;;5092590;28;20471;-74
2023/01/05 00:50:21;;;;;;;0.60;0.33;;;11.20;99.90;;;;;;5092441;28;20930;-74
2023/01/05 00:52:48;;;;;;;0.60;0.40;;;11.20;99.90;;;;;;5092999;28;20445;-75
2023/01/05 00:55:15;;;;;;;0.60;0.40;;;11.30;99.90;;;;;;5092307;28;20442;-74
2023/01/05 00:57:42;;;;;;;0.70;0.40;;;11.30;99.90;;;;;;5092917;28;20447;-74
2023/01/05 01:00:13;;;;;;;0.60;0.40;;;11.20;99.90;;;;;;5092122;28;20451;-75
2023/01/05 01:02:40;;;;;;;0.60;0.40;;;11.20;99.90;;;;;;5092997;28;20448;-74
2023/01/05 01:05:09;;;;;;;0.90;0.60;;;11.20;99.90;;;;;;5092325;28;20443;-75
2023/01/05 01:07:36;;;;;;;0.60;0.40;;;11.30;99.90;;;;;;5092599;28;20450;-74
2023/01/05 01:10:03;;;;;;;0.80;0.53;;;11.30;99.90;;;;;;5091543;28;20455;-72
2023/01/05 01:12:30;;;;;;;0.60;0.40;;;11.30;99.90;;;;;;5092819;28;20462;-74
2023/01/05 01:14:57;;;;;;;0.97;0.60;;;11.30;99.90;;;;;;5092876;28;20445;-75
2023/01/05 01:17:24;;;;;;;0.70;0.40;;;11.30;99.90;;;;;;5091585;28;20451;-75
2023/01/05 01:19:51;;;;;;;0.80;0.40;;;11.30;99.90;;;;;;5092425;28;20458;-75
2023/01/05 01:22:19;;;;;;;0.60;0.40;;;11.30;99.90;;;;;;5092082;28;20489;-74
2023/01/05 01:24:45;;;;;;;0.60;0.50;;;11.30;99.90;;;;;;5092132;28;20466;-74
2023/01/05 01:27:12;;;;;;;0.70;0.40;;;11.30;99.90;;;;;;5091462;28;20945;-75
2023/01/05 01:29:39;;;;;;;0.63;0.40;;;11.30;99.90;;;;;;5092605;28;20445;-74
2023/01/05 01:32:07;;;;;;;1.00;0.60;;;11.30;99.90;;;;;;5091497;28;21012;-74
2023/01/05 01:34:33;;;;;;;0.83;0.40;;;11.30;99.90;;;;;;5092405;28;20456;-74
2023/01/05 01:37:01;;;;;;;0.70;0.40;;;11.30;99.90;;;;;;5092021;28;20448;-74
2023/01/05 01:39:29;;;;;;;0.70;0.40;;;11.30;99.90;;;;;;5092050;28;20498;-74
2023/01/05 01:41:56;;;;;;;0.70;0.40;;;11.30;99.90;;;;;;5092260;28;20574;-74
2023/01/05 01:44:52;;;;;;;0.60;0.40;;;11.30;99.90;;;;;;5091770;28;20483;-75
2023/01/05 01:47:29;;;;;;;1.13;0.53;;;11.30;99.90;;;;;;5090883;28;20455;-74
2023/01/05 01:49:57;;;;;;;0.70;0.40;;;11.30;99.90;;;;;;5092182;28;20772;-74
2023/01/05 01:52:27;;;;;;;0.60;0.40;;;11.30;99.90;;;;;;5091034;28;20451;-74
2023/01/05 01:54:56;;;;;;;0.80;0.50;;;11.30;1.00;;;;;;5091810;28;20446;-74
2023/01/05 01:57:25;;;;;;;0.60;0.40;;;11.30;1.00;;;;;;5090628;28;20635;-75
2023/01/05 01:59:52;;;;;;;0.80;0.40;;;11.20;1.00;;;;;;5091931;28;20452;-75
2023/01/05 02:02:22;;;;;;;0.60;0.40;;;11.20;1.00;;;;;;5090988;28;20483;-75
2023/01/05 02:04:51;;;;;;;0.60;0.40;;;11.20;1.00;;;;;;5091500;28;20540;-75
2023/01/05 02:07:18;;;;;;;0.60;0.40;;;11.20;1.00;;;;;;5090873;28;20448;-74
2023/01/05 02:09:45;;;;;;;0.60;0.40;;;11.20;1.00;;;;;;5091761;28;20450;-75
2023/01/05 02:12:25;;;;;;;0.97;0.40;;;11.20;1.00;;;;;;5091042;28;20455;-75
2023/01/05 02:15:06;;;;;;;0.60;0.40;;;11.20;1.00;;;;;;5091597;28;20432;-75
2023/01/05 02:17:46;;;;;;;0.70;0.40;;;11.20;1.00;;;;;;5091226;28;20486;-75
2023/01/05 02:20:37;;;;;;;1.23;0.50;;;11.20;1.00;;;;;;5091001;28;20451;-75
2023/01/05 02:23:36;;;;;;;0.60;0.40;;;11.20;1.00;;;;;;5090090;28;20935;-74
2023/01/05 02:26:24;;;;;;;0.60;0.40;;;11.20;1.00;;;;;;5090241;28;20932;-72
2023/01/05 02:29:15;;;;;;;1.10;0.70;;;11.30;1.00;;;;;;5090692;28;20924;-75
2023/01/05 02:31:48;;;;;;;0.70;0.40;;;11.30;1.00;;;;;;5078533;28;20805;-76
2023/01/05 02:34:21;;;;;;;0.60;0.40;;;11.30;1.00;;;;;;5090393;28;20437;-76
2023/01/05 02:36:52;;;;;;;1.90;0.50;;;11.30;1.00;;;;;;5091004;28;20792;-75
2023/01/05 02:39:24;;;;;;;0.80;0.40;;;11.30;1.00;;;;;;5090504;28;20439;-76
2023/01/05 02:41:57;;;;;;;0.60;0.40;;;11.30;1.00;;;;;;5091229;28;20474;-75
2023/01/05 02:44:28;;;;;;;0.60;0.40;;;11.30;1.00;;;;;;5090745;28;20542;-76
2023/01/05 02:47:05;;;;;;;0.60;0.40;;;11.30;1.00;;;;;;5090756;28;20462;-75
2023/01/05 02:49:36;;;;;;;0.80;0.40;;;11.30;1.00;;;;;;5078050;28;20927;-75
2023/01/05 02:52:09;;;;;;;0.83;0.50;;;11.30;1.00;;;;;;5090477;28;20448;-73
2023/01/05 02:54:41;;;;;;;0.80;0.50;;;11.20;1.00;;;;;;5090966;28;21085;-74
2023/01/05 02:57:12;;;;;;;0.70;0.40;;;11.30;1.00;;;;;;5089649;28;20446;-75
2023/01/05 02:59:43;;;;;;;0.60;0.40;;;11.30;1.00;;;;;;5090806;28;20444;-75
2023/01/05 03:02:16;;;;;;;0.60;0.30;;;11.30;1.00;;;;;;5090273;28;20483;-74
2023/01/05 03:04:49;;;;;;;0.60;0.40;;;11.30;1.00;;;;;;5090964;28;20455;-74
2023/01/05 03:07:22;;;;;;;7.57;1.03;;;11.30;1.00;;;;;;5089693;28;20437;-75
2023/01/05 03:09:50;;;;;;;0.60;0.40;;;11.30;1.00;;;;;;5090248;28;20448;-74
2023/01/05 03:15:17;;;;;;;0.60;0.40;;;11.30;1.00;;;;;;5090072;28;20810;-74
2023/01/05 03:17:48;;;;;;;0.60;0.40;;;11.30;1.00;;;;;;5090449;28;20441;-74
2023/01/05 03:20:16;;;;;;;0.60;0.40;;;11.30;1.00;;;;;;5089896;28;20444;-74
2023/01/05 03:36:50;;;;;;;0.60;0.40;;;11.30;1.00;;;;;;5083272;28;20451;-74
2023/01/05 03:39:19;;;;;;;0.63;0.40;;;11.30;1.00;;;;;;5093648;28;20448;-74
2023/01/05 03:41:46;;;;;;;0.60;0.33;;;11.40;1.00;;;;;;5094480;28;20487;-76
2023/01/05 03:44:13;;;;;;;0.70;0.40;;;11.30;1.00;;;;;;5093539;28;20475;-75
2023/01/05 03:46:41;;;;;;;0.60;0.30;;;11.30;1.00;;;;;;5094167;28;20448;-75
2023/01/05 03:49:09;;;;;;;0.70;0.40;;;11.40;1.00;;;;;;5093826;28;20793;-75
2023/01/05 03:51:36;;;;;;;0.60;0.40;;;11.40;1.00;;;;;;5094519;28;20455;-75
2023/01/05 03:54:03;;;;;;;0.60;0.40;;;11.40;1.00;;;;;;5093791;28;20459;-73
2023/01/05 03:56:30;;;;;;;0.60;0.40;;;11.40;1.00;;;;;;5094042;28;20967;-75
2023/01/05 03:58:57;;;;;;;0.60;0.30;;;;;;;;;;5093798;28;20528;-75
2023/01/05 04:01:24;;;;;;;0.60;0.40;;;;;;;;;;5093680;28;20499;-75
2023/01/05 04:03:51;;;;;;;0.70;0.40;;;;;;;;;;5094277;28;20449;-75
2023/01/05 04:06:19;;;;;;;0.70;0.50;;;;;;;;;;5093243;28;20460;-75
2023/01/05 04:08:46;;;;;;;0.60;0.40;;;;;;;;;;5093542;28;20463;-75
2023/01/05 04:11:14;;;;;;;0.60;0.40;;;;;;;;;;5093083;28;20465;-75
2023/01/05 04:13:42;;;;;;;0.67;0.47;;;;;;;;;;5094194;28;20456;-76
2023/01/05 04:16:09;;;;;;;0.87;0.40;;;;;;;;;;5093654;28;20448;-75
2023/01/05 04:18:36;;;;;;;0.63;0.40;;;;;;;;;;5093312;28;20449;-74
2023/01/05 04:21:03;;;;;;;0.60;0.40;;;;;;;;;;5093097;28;20447;-72
2023/01/05 04:23:32;;;;;;;0.80;0.50;;;;;;;;;;5080519;28;20456;-75
2023/01/05 04:25:59;;;;;;;0.70;0.40;;;;;;;;;;5093532;28;20444;-74
2023/01/05 04:28:26;;;;;;;0.70;0.40;;;;;;;;;;5092552;28;20452;-75
2023/01/05 04:30:54;;;;;;;0.60;0.40;;;;;;;;;;5093435;28;20456;-74
2023/01/05 04:33:21;;;;;;;0.80;0.50;;;;;;;;;;5092819;28;20449;-75
2023/01/05 04:35:49;;;;;;;0.87;0.70;;;;;;;;;;5093355;28;20547;-74
2023/01/05 04:38:16;;;;;;;0.60;0.40;;;;;;;;;;5092200;28;20456;-74
2023/01/05 04:40:48;;;;;;;0.70;0.50;;;;;;;;;;5092934;28;21037;-75
2023/01/05 04:43:15;;;;;;;0.97;0.40;;;;;;;;;;5092513;28;20499;-75
2023/01/05 04:45:42;;;;;;;0.70;0.40;;;;;;;;;;5092150;28;20445;-75
2023/01/05 04:48:09;;;;;;;0.60;0.40;;;;;;;;;;5092435;28;20451;-74
2023/01/05 04:50:36;;;;;;;0.60;0.40;;;;;;;;;;5092799;28;20440;-75
2023/01/05 04:53:03;;;;;;;0.90;0.40;;;;;;;;;;5092425;28;21007;-73
2023/01/05 04:55:30;;;;;;;4.80;0.50;;;;;;;;;;5093042;28;20452;-74
2023/01/05 04:57:59;;;;;;;0.70;0.50;;;;;;;;;;5092696;28;20461;-75
2023/01/05 05:00:27;;;;;;;0.67;0.40;;;;;;;;;;5092443;28;20445;-75
2023/01/05 05:02:54;;;;;;;0.70;0.40;;;;;;;;;;5092840;28;20483;-75
2023/01/05 05:05:21;;;;;;;0.70;0.40;;;;;;;;;;5091899;28;20449;-75
2023/01/05 05:07:48;;;;;;;0.70;0.43;;;;;;;;;;5092568;28;20531;-75
2023/01/05 05:10:16;;;;;;;0.70;0.40;;;;;;;;;;5091717;28;20456;-74
2023/01/05 05:12:44;;;;;;;1.20;0.50;;;;;;;;;;5092843;28;20456;-75
2023/01/05 05:15:13;;;;;;;0.70;0.47;;;;;;;;;;5092280;28;20471;-74
2023/01/05 05:17:40;;;;;;;0.70;0.40;;;;;;;;;;5092342;28;20448;-75
2023/01/05 05:20:07;;;;;;;0.60;0.40;;;;;;;;;;5092023;28;20441;-75
2023/01/05 05:22:34;;;;;;;0.60;0.40;;;;;;;;;;5092134;28;20518;-74
2023/01/05 05:25:02;;;;;;;0.60;0.40;;;;;;;;;;5092407;28;20476;-75
2023/01/05 05:27:29;;;;;;;0.60;0.40;;;;;;;;;;5091939;28;20480;-75
2023/01/05 05:29:56;;;;;;;0.70;0.40;;;;;;;;;;5092370;28;20445;-74
2023/01/05 05:32:24;;;;;;;0.60;0.40;;;;;;;;;;5091716;28;20448;-75
2023/01/05 05:34:52;;;;;;;0.70;0.63;;;;;;;;;;5091880;28;20959;-74
2023/01/05 05:37:19;;;;;;;0.60;0.40;;;;;;;;;;5091295;28;20445;-74
2023/01/05 05:39:46;;;;;;;0.60;0.40;;;;;;;;;;5091960;28;20459;-75
2023/01/05 05:42:13;;;;;;;0.80;0.47;;;;;;;;;;5091250;28;21007;-74
2023/01/05 05:44:40;;;;;;;0.60;0.40;;;;;;;;;;5092276;28;20583;-75
2023/01/05 05:47:07;;;;;;;0.70;0.40;;;;;;;;;;5091018;28;20452;-75
2023/01/05 05:49:35;;;;;;;0.70;0.50;;;;;;;;;;5078586;28;20849;-74
2023/01/05 05:52:03;;;;;;;0.83;0.50;;;;;;;;;;5091614;28;20460;-72
2023/01/05 05:54:30;;;;;;;0.67;0.43;;;;;;;;;;5091965;28;20444;-75
2023/01/05 05:56:57;;;;;;;0.70;0.40;;;;;;;;;;5091191;28;20452;-74
2023/01/05 05:59:24;;;;;;;0.70;0.50;;;;;;;;;;5091138;28;20934;-74
2023/01/05 06:01:52;;;;;;;0.80;0.40;;;;;;;;;;5091986;28;20480;-75
2023/01/05 06:04:19;;;;;;;1.00;0.50;;;;;;;;;;5091575;28;20502;-75
2023/01/05 06:06:47;;;;;;;0.80;0.40;;;;;;;;;;5091779;28;20447;-74
2023/01/05 06:09:14;;;;;;;3.13;0.60;;;;;;;;;;5091208;28;20923;-74
2023/01/05 06:11:42;;;;;;;0.60;0.30;;;;;;;;;;5091925;28;20452;-74
2023/01/05 06:14:09;;;;;;;0.60;0.40;;;;;;;;;;5091707;28;20460;-74
2023/01/05 06:16:36;;;;;;;0.70;0.40;;;;;;;;;;5091493;28;20458;-74
2023/01/05 06:19:03;;;;;;;0.60;0.40;;;;;;;;;;5091357;28;20456;-71
2023/01/05 06:21:30;;;;;;;0.60;0.40;;;;;;;;;;5091914;28;20476;-74
2023/01/05 06:23:58;;;;;;;0.70;0.40;;;;;;;;;;5092144;28;20452;-74
2023/01/05 06:26:25;;;;;;;0.70;0.40;;;;;;;;;;5090707;28;20465;-74
2023/01/05 06:28:52;;;;;;;0.70;0.40;;;;;;;;;;5091777;28;20458;-75
2023/01/05 06:31:20;;;;;;;0.90;0.40;;;;;;;;;;5090795;28;20452;-74
2023/01/05 06:33:47;;;;;;;1.37;0.50;;;;;;;;;;5091495;28;20940;-74
2023/01/05 06:36:14;;;;;;;0.93;0.70;;;;;;;;;;5077572;28;20449;-77
2023/01/05 06:38:41;;;;;;;1.03;0.60;;;;;;;;;;5091162;28;20946;-74
2023/01/05 06:41:09;;;;;;;0.87;0.50;;;;;;;;;;5090779;28;20479;-75
2023/01/05 06:43:36;;;;;;;0.87;0.57;;;;;;;;;;5090900;28;20497;-75
2023/01/05 06:46:03;;;;;;;0.80;0.40;;;;;;;;;;5090999;28;20794;-75
2023/01/05 06:48:30;;;;;;;0.70;0.40;;;;;;;;;;5091207;28;20454;-75
2023/01/05 06:50:58;;;;;;;1.07;0.40;;;;;;;;;;5091738;28;20459;-75
2023/01/05 06:53:25;;;;;;;0.73;0.40;;;;;;;;;;5090709;28;20943;-76
2023/01/05 06:55:52;;;;;;;0.70;0.40;;;;;;;;;;5091207;28;20453;-76
2023/01/05 06:58:20;;;;;;;2.50;1.03;;;;;;;;;;5090323;28;20453;-75
2023/01/05 07:00:47;;;;;;;1.07;0.70;;;;;;;;;;5090977;28;20446;-76
2023/01/05 07:03:14;;;;;;;1.03;0.53;;;;;;;;;;5090393;28;20984;-74
2023/01/05 07:05:41;;;;;;;1.47;0.60;;;;;;;;;;5091350;28;20453;-75
2023/01/05 07:08:08;;;;;;;1.30;0.50;;;;;;;;;;5089481;28;20458;-75
2023/01/05 07:10:35;;;;;;;1.17;0.80;;;;;;;;;;5090761;28;20924;-75
2023/01/05 07:13:03;;;;;;;0.90;0.60;;;;;;;;;;5090934;28;20470;-71
2023/01/05 07:15:31;;;;;;;1.63;0.70;;;;;;;;;;5091186;28;20808;-75
2023/01/05 07:17:58;;;;;;;1.53;0.77;;;;;;;;;;5090777;28;20461;-74
2023/01/05 07:20:25;;;;;;;5.40;0.83;;;;;;;;;;5090237;28;20450;-75
2023/01/05 07:22:52;;;;;;;0.90;0.70;;;;;;;;;;5090672;28;21078;-75
2023/01/05 07:25:20;;;;;;;1.00;0.60;;;;;;;;;;5090458;28;20785;-75
2023/01/05 07:27:50;;;;;;;0.87;0.50;;;;;;;;;;5090647;28;20443;-74
2023/01/05 07:30:17;;;;;;;1.10;0.63;;;;;;;;;;5090565;28;20925;-75
2023/01/05 07:32:46;;;;;;;1.97;0.50;;;;;;;;;;5090574;28;20458;-74
2023/01/05 07:35:13;;;;;;;1.37;1.07;;;;;;;;;;5090534;28;20537;-75
2023/01/05 07:37:42;;;;;;;2.40;0.63;;;;;;;;;;5090529;28;20451;-75
2023/01/05 07:40:09;;;;;;;2.87;1.60;;;;;;;;;;5090232;28;20463;-74
2023/01/05 07:42:36;;;;;;;0.80;0.50;;;;;;;;;;5090563;28;20496;-74
2023/01/05 07:45:04;;;;;;;0.80;0.50;;;;;;;;;;5090196;28;20966;-73
2023/01/05 07:47:31;;;;;;;3.60;0.93;;;;;;;;;;5090614;28;20451;-76
2023/01/05 07:50:00;;;;;;;1.57;0.70;;;;;;;;;;5091171;28;20484;-76
2023/01/05 07:52:29;;;;;;;1.13;0.60;;;;;;;;;;5090485;28;20559;-76
2023/01/05 07:54:57;;;;;;;2.10;1.10;;;;;;;;;;5090929;28;20508;-75
2023/01/05 07:57:24;;;;;;;4.10;2.30;;;;;;;;;;5089778;28;20455;-75
2023/01/05 07:59:51;;;;;;;1.30;0.80;;;;;;;;;;5090731;28;20450;-75
2023/01/05 08:02:18;;;;;;;0.80;0.63;;;;;;;;;;5089686;28;20448;-75
2023/01/05 08:04:45;;;;;;;1.63;0.50;;;;;;;;;;5090441;28;20447;-75
2023/01/05 08:07:14;;;;;;;1.53;0.80;;;;;;;;;;5089558;28;20450;-75
2023/01/05 08:12:26;;;;;;;1.63;0.70;;;;;;;;;;5077756;28;20437;-75
2023/01/05 08:14:53;;;;;;;1.40;0.60;;;;;;;;;;5090515;28;20467;-75
2023/01/05 08:17:20;;;;;;;3.57;0.87;;;;;;;;;;5089525;28;20450;-76
2023/01/05 08:19:47;;;;;;;1.00;0.67;;;;;;;;;;5090138;28;20452;-75
2023/01/05 08:22:16;;;;;;;1.20;0.60;;;;;;;;;;5093419;28;20822;-75
2023/01/05 08:24:43;;;;;;;2.57;0.60;;;;;;;;;;5094058;28;20448;-75
2023/01/05 08:27:10;;;;;;;0.73;0.50;;;;;;;;;;5092572;28;20943;-75
2023/01/05 08:29:37;;;;;;;1.00;0.67;;;;;;;;;;5093961;28;20452;-74
2023/01/05 08:32:04;;;;;;;1.10;0.80;;;;;;;;;;5093385;28;20788;-74
2023/01/05 08:34:31;;;;;;;0.70;0.47;;;;;;;;;;5094026;28;20451;-75
2023/01/05 08:36:58;;;;;;;0.90;0.53;;;;;;;;;;5093737;28;20455;-75
2023/01/05 08:39:27;;;;;;;0.97;0.60;;;;;;;;;;5093328;28;20452;-75
2023/01/05 08:41:54;;;;;;;0.80;0.60;;;;;;;;;;5093416;28;20471;-75
2023/01/05 08:44:21;;;;;;;1.10;0.87;;;;;;;;;;5093064;28;20495;-75
2023/01/05 08:46:48;;;;;;;1.13;0.67;;;;;;;;;;5093101;28;20449;-75
2023/01/05 08:49:15;;;;;;;1.50;0.77;;;;;;;;;;5093014;28;20510;-75
2023/01/05 08:51:42;;;;;;;2.30;0.80;;;;;;;;;;5093723;28;20523;-76
2023/01/05 08:54:09;;;;;;;1.30;0.87;;;;;;;;;;5092940;28;20463;-76
2023/01/05 08:56:38;;;;;;;0.83;0.50;;;;;;;;;;5093060;28;20452;-75
2023/01/05 08:59:05;;;;;;;1.90;1.20;;;;;;;;;;5092707;28;20454;-76
2023/01/05 09:01:32;;;;;;;1.23;0.80;;;;;;;;;;5093633;28;20460;-76
2023/01/05 09:03:59;;;;;;;3.83;1.10;;;;;;;;;;5093471;28;20886;-75
2023/01/05 09:06:26;;;;;;;2.33;1.23;;;;;;;;;;5092289;28;20451;-75
2023/01/05 09:08:53;;;;;;;5.00;0.93;;;;;;;;;;5093181;28;20448;-75
2023/01/05 09:11:21;;;;;;;1.47;0.70;;;;;;;;;;5092571;28;20448;-74
2023/01/05 09:13:50;;;;;;;3.10;1.50;;;;;;;;;;5092796;28;20452;-75
2023/01/05 09:16:18;;;;;;;3.13;1.10;;;;;;;;;;5092209;28;20440;-75
2023/01/05 09:18:46;;;;;;;1.97;1.00;;;;;;;;;;5087272;28;20818;-74
2023/01/05 09:21:13;;;;;;;0.70;0.50;;;;;;;;;;5092462;28;20454;-74
2023/01/05 09:23:41;;;;;;;2.40;1.13;;;;;;;;;;5092951;28;20483;-75
2023/01/05 09:26:09;;;;;;;3.97;1.23;;;;;;;;;;5091684;28;20441;-75
2023/01/05 09:28:36;;;;;;;1.07;0.70;;;;;;;;;;5092881;28;20455;-75
2023/01/05 09:31:11;;;;;;;3.37;1.07;;;;;;;;;;5091746;28;20460;-73
2023/01/05 09:33:38;;;;;;;1.77;1.33;;;;;;;;;;5092734;28;20450;-75
2023/01/05 09:36:06;;;;;;;1.90;1.20;;;;;;;;;;5091763;28;20794;-75
2023/01/05 09:38:33;;;;;;;1.57;1.30;;;;;;;;;;5092664;28;20451;-74
2023/01/05 09:41:03;;;;;;;2.63;1.07;;;;;;;;;;5092529;28;20460;-74
2023/01/05 09:43:33;;;;;;;1.33;0.80;;;;;;;;;;5092290;28;20498;-75
2023/01/05 09:46:00;;;;;;;2.10;0.90;;;;;;;;;;5092290;28;20445;-74
2023/01/05 09:48:34;;;;;;;2.90;1.43;;;;;;;;;;5092046;28;20946;-75
2023/01/05 09:51:01;;;;;;;5.87;1.57;;;;;;;;;;5092476;28;20445;-76
2023/01/05 09:53:30;;;;;;;6.80;1.47;;;;;;;;;;5092549;28;20878;-75
2023/01/05 09:55:58;;;;;;;7.20;1.30;;;;;;;;;;5092125;28;20462;-75
2023/01/05 09:58:27;;;;;;;2.73;1.10;;;;;;;;;;5091679;28;20443;-75
2023/01/05 10:01:03;;;;;;;4.90;1.53;;;;;;;;;;5092167;28;20456;-75
2023/01/05 10:03:32;;;;;;;2.93;0.70;;;;;;;;;;5092244;28;20479;-75
2023/01/05 10:05:59;;;;;;;0.70;0.50;;;;;;;;;;5091929;28;20445;-74
2023/01/05 10:08:32;;;;;;;4.70;0.90;;;;;;;;;;5091434;28;20447;-75
2023/01/05 10:13:56;;;;;;;3.33;0.60;;;;;;;;;;5091713;28;20443;-75
2023/01/05 10:16:23;;;;;;;17.43;2.90;;;;;;;;;;5091105;28;20444;-75
2023/01/05 10:18:53;;;;;;;7.03;1.90;;;;;;;;;;5086838;28;20474;-75
2023/01/05 10:21:26;;;;;;;3.47;0.90;;;;;;;;;;5091292;28;20865;-75
2023/01/05 10:24:02;;;;;;;5.83;1.10;;;;;;;;;;5091871;28;20476;-75
2023/01/05 10:26:31;;;;;;;3.27;1.60;;;;;;;;;;5091389;28;20432;-75
2023/01/05 10:29:00;;;;;;;3.47;0.90;;;;;;;;;;5091987;28;20449;-75
2023/01/05 10:31:31;;;;;;;9.00;1.10;;;;;;;;;;5091398;28;20453;-75
2023/01/05 10:34:04;;;;;;;4.33;1.60;;;;;;;;;;5092045;28;20792;-76
2023/01/05 10:36:44;;;;;;;3.23;1.30;;;;;;;;;;5077968;28;20779;-75
2023/01/05 10:39:18;;;;;;;5.50;1.30;;;;;;;;;;5091161;28;20740;-74
2023/01/05 10:41:50;;;;;;;4.70;1.07;;;;;;;;;;5091297;28;20452;-74
2023/01/05 10:44:33;;;;;;;4.47;1.17;;;;;;;;;;5089943;28;20497;-74
2023/01/05 10:47:01;;;;;;;2.70;0.87;;;;;;;;;;5091286;28;20448;-75
2023/01/05 10:49:30;;;;;;;1.57;0.97;;;;;;;;;;5091502;28;20445;-75
2023/01/05 10:51:59;;;;;;;2.70;1.10;;;;;;;;;;5091611;28;20451;-75
2023/01/05 10:54:30;;;;;;;5.37;0.70;;;;;;;;;;5077317;28;20453;-76
2023/01/05 10:57:17;;;;;;;2.80;0.93;;;;;;;;;;5091063;28;20441;-74
2023/01/05 10:59:54;;;;;;;2.90;0.83;;;;;;;;;;5090948;28;20802;-74
2023/01/05 11:02:22;;;;;;;2.33;0.90;;;;;;;;;;5090668;28;20466;-76
2023/01/05 11:04:50;;;;;;;4.27;1.43;;;;;;;;;;5091255;28;20485;-76
2023/01/05 11:07:17;;;;;;;2.13;1.37;;;;;;;;;;5089844;28;20460;-76
2023/01/05 11:09:45;;;;;;;5.53;1.43;;;;;;;;;;5091151;28;20472;-75
2023/01/05 11:12:17;;;;;;;2.57;1.10;;;;;;;;;;5090502;28;20441;-75
2023/01/05 11:14:44;;;;;;;4.73;1.10;;;;;;;;;;5091416;28;20445;-72
2023/01/05 11:17:14;;;;;;;4.73;1.37;;;;;;;;;;5076792;28;20944;-75
2023/01/05 11:19:42;;;;;;;1.67;1.00;;;;;;;;;;5090852;28;20495;-74
2023/01/05 11:22:26;;;;;;;3.10;0.60;;;;;;;;;;5090444;28;20452;-75
2023/01/05 11:24:54;;;;;;;3.93;1.10;;;;;;;;;;5090957;28;20535;-75
2023/01/05 11:27:25;;;;;;;4.20;1.30;;;;;;;;;;5089922;28;20445;-75
2023/01/05 11:30:07;;;;;;;6.43;1.37;;;;;;;;;;5090927;28;20440;-75
2023/01/05 11:32:34;;;;;;;1.60;1.10;;;;;;;;;;5091065;28;20523;-74
2023/01/05 11:35:01;;;;;;;6.17;1.00;;;;;;;;;;5090776;28;20456;-75
2023/01/05 11:37:30;;;;;;;3.50;1.30;;;;;;;;;;5090684;28;20444;-75
2023/01/05 11:39:58;;;;;;;2.67;1.03;;;;;;;;;;5091003;28;20935;-75
2023/01/05 11:42:30;;;;;;;1.63;0.83;;;;;;;;;;5089677;28;20457;-74
2023/01/05 11:44:58;;;;;;;7.80;1.27;;;;;;;;;;5090933;28;20465;-74
2023/01/05 11:47:27;;;;;;;2.33;1.00;;;;;;;;;;5089867;28;20445;-75
2023/01/05 11:49:59;;;;;;;1.93;0.90;;;;;;;;;;5090889;28;20811;-75
2023/01/05 11:52:27;;;;;;;4.27;1.20;;;;;;;;;;5090268;28;20449;-74
2023/01/05 11:54:55;;;;;;;5.10;1.83;;;11.50;1.00;;;;;;5092351;28;20448;-75
2023/01/05 11:57:22;;;;;;;2.40;1.30;;;12.20;1.00;;;;;;5093445;28;20471;-75
2023/01/05 11:59:54;;;;;;;2.93;1.33;;;12.20;1.00;;;;;;5094852;28;20516;-75
2023/01/05 12:02:52;;;;;;;2.40;1.00;;;12.20;1.00;;;;;;5093772;28;20464;-74
2023/01/05 12:05:30;;;;;;;2.07;0.60;;;12.20;1.00;;;;;;5065534;28;20484;-75
2023/01/05 12:08:06;;;;;;;5.60;1.03;;;12.20;1.00;;;;;;5094154;28;20443;-75
2023/01/05 12:10:55;;;;;;;5.73;1.10;;;12.20;1.00;;;;;;5094420;28;20432;-74
2023/01/05 12:13:51;;;;;;;2.40;1.00;;;12.20;1.00;;;;;;5093570;28;20464;-75
2023/01/05 12:16:42;;;;;;;2.10;0.90;;;12.30;1.00;;;;;;5093450;28;20503;-74
2023/01/05 12:19:22;;;;;;;2.03;0.60;;;12.20;1.00;;;;;;5093442;28;21008;-75
2023/01/05 12:22:01;;;;;;;6.23;1.17;;;12.20;1.00;;;;;;5093889;28;20459;-74
2023/01/05 12:24:41;;;;;;;10.03;1.67;;;12.30;1.00;;;;;;5094402;28;20472;-78
2023/01/05 12:27:21;;;;;;;5.93;1.00;;;12.30;1.00;;;;;;5082561;28;20924;-79
2023/01/05 12:30:16;;;;;;;2.93;1.20;;;12.30;1.00;;;;;;5093917;28;21207;-81
2023/01/05 12:32:54;;;;;;;4.87;1.13;;;12.30;1.00;;;;;;5087253;28;20456;-75
2023/01/05 12:35:29;;;;;;;3.73;0.90;;;;;;;;;;5093445;28;20458;-75
2023/01/05 12:38:05;;;;;;;3.33;1.10;;;;;;;;;;5093430;28;20447;-75
2023/01/05 12:40:45;;;;;;;2.90;1.03;;;;;;;;;;5093777;28;20471;-75
2023/01/05 12:43:18;;;;;;;2.03;0.83;;;;;;;;;;5080882;28;20484;-75
2023/01/05 12:45:59;;;;;;;10.77;1.90;;;;;;;;;;5093271;28;20496;-74
2023/01/05 12:48:28;;;;;;;5.17;0.93;;;;;;;;;;5093242;28;20807;-76
2023/01/05 12:50:58;;;;;;;2.93;1.17;;;;;;;;;;5093226;28;20966;-75
2023/01/05 12:53:29;;;;;;;10.90;1.20;;;;;;;;;;5092776;28;20467;-75
2023/01/05 12:55:57;;;;;;;5.00;1.57;;;;;;;;;;5093094;28;20792;-75
2023/01/05 12:58:28;;;;;;;3.20;1.70;;;;;;;;;;5092816;28;20445;-75
2023/01/05 13:00:56;;;;;;;5.00;1.33;;;;;;;;;;5080655;28;20445;-76
2023/01/05 13:03:27;;;;;;;4.87;1.30;;;;;;;;;;5092734;28;20453;-75
2023/01/05 13:05:58;;;;;;;3.53;0.83;;;;;;;;;;5089992;28;20488;-75
2023/01/05 13:08:27;;;;;;;5.60;1.90;;;;;;;;;;5086169;28;20459;-75
2023/01/05 13:10:56;;;;;;;4.40;0.80;;;;;;;;;;5090609;28;20461;-75
2023/01/05 13:13:28;;;;;;;2.70;1.00;;;;;;;;;;5091472;28;20461;-75
2023/01/05 13:15:58;;;;;;;3.57;1.13;;;;;;;;;;5092283;28;20460;-76
2023/01/05 13:18:26;;;;;;;4.13;1.10;;;;;;;;;;5091973;28;20445;-76
2023/01/05 13:20:54;;;;;;;3.60;1.27;;;;;;;;;;5092334;28;20456;-76
2023/01/05 13:23:25;;;;;;;1.53;0.57;;;12.30;1.00;;;;;;5092201;28;20453;-76
2023/01/05 13:25:57;;;;;;;4.50;1.43;;;12.20;1.00;;;;;;5091971;28;20491;-76
2023/01/05 13:28:26;;;;;;;2.63;1.20;;;12.20;1.00;;;;;;5078151;28;20445;-76
2023/01/05 13:31:14;;;;;;;6.93;0.90;;;12.20;1.00;;;;;;5091991;28;20451;-75
2023/01/05 13:34:15;;;;;;;3.77;1.03;;;12.20;1.00;;;;;;5092523;28;20440;-75
2023/01/05 13:37:07;;;;;;;2.60;1.37;;;12.10;1.00;;;;;;5079781;28;21271;-76
2023/01/05 13:39:48;;;;;;;3.73;1.10;;;12.10;1.00;;;;;;5075128;28;20784;-75
2023/01/05 13:42:39;;;;;;;4.10;1.43;;;12.20;1.00;;;;;;5091342;28;20956;-75
2023/01/05 13:45:46;;;;;;;1.63;0.60;;;12.20;1.00;;;;;;5060280;28;21012;-75
2023/01/05 13:48:31;;;;;;;2.60;0.90;;;12.30;1.00;;;;;;5066104;28;20438;-74
2023/01/05 13:51:11;;;;;;;2.60;0.80;;;;;;;;;;5071929;28;20442;-75
2023/01/05 13:53:40;;;;;;;8.60;1.57;;;12.30;1.00;;;;;;5071316;28;20921;-75
2023/01/05 13:56:14;;;;;;;1.93;0.73;;;12.20;1.00;;;;;;5070766;28;20455;-75
2023/01/05 13:58:44;;;;;;;4.07;0.93;;;12.20;1.00;;;;;;5071360;28;20446;-75
2023/01/05 14:01:14;;;;;;;8.57;1.87;;;;;;;;;;5071137;28;20446;-76
2023/01/05 14:03:46;;;;;;;5.73;1.10;;;;;;;;;;5070987;28;20498;-76
2023/01/05 14:06:19;;;;;;;2.67;1.63;;;;;;;;;;5060194;28;20485;-75
2023/01/05 14:08:49;;;;;;;2.87;1.20;;;;;;;;;;5070218;28;20453;-74
2023/01/05 14:11:17;;;;;;;2.90;1.00;;;;;;;;;;5070873;28;20464;-75
2023/01/05 14:13:46;;;;;;;1.80;1.13;;;;;;;;;;5070872;28;20459;-74
2023/01/05 14:16:32;;;;;;;5.47;1.33;;;;;;;;;;5070387;28;20460;-76
2023/01/05 14:19:11;;;;;;;2.67;1.10;;;;;;;;;;5071172;28;20446;-76
2023/01/05 14:21:59;;;;;;;3.43;1.30;;;;;;;;;;5071044;28;20441;-76
2023/01/05 14:24:31;;;;;;;3.07;1.03;;;;;;;;;;5070339;28;20481;-75
2023/01/05 14:27:06;;;;;;;7.13;1.73;;;;;;;;;;5069947;28;20457;-76
2023/01/05 14:29:52;;;;;;;7.40;2.27;;;;;;;;;;5061296;28;20493;-75
2023/01/05 14:32:22;;;;;;;10.00;1.80;;;;;;;;;;5071576;28;20433;-75
2023/01/05 14:34:51;;;;;;;3.43;1.33;;;;;;;;;;5071530;28;20450;-76
2023/01/05 14:37:23;;;;;;;3.37;1.20;;;;;;;;;;5070399;28;20796;-75
2023/01/05 14:39:52;;;;;;;2.20;1.33;;;;;;;;;;5071538;28;20446;-78
2023/01/05 14:42:27;;;;;;;3.40;1.10;;;;;;;;;;5070559;28;20458;-77
2023/01/05 14:44:58;;;;;;;6.73;1.60;;;;;;;;;;5071441;28;20805;-77
2023/01/05 14:47:34;;;;;;;6.50;2.47;;;;;;;;;;5070336;28;20469;-77
2023/01/05 14:50:03;;;;;;;4.30;1.10;;;;;;;;;;5071615;28;20453;-77
2023/01/05 14:53:03;;;;;;;7.20;1.67;;;;;;;;;;5071503;28;20807;-77
2023/01/05 14:55:32;;;;;;;3.23;1.00;;;;;;;;;;5009069;28;20459;-77
2023/01/05 14:57:59;;;;;;;1.57;1.00;;;;;;;;;;5009212;28;20843;-78